Terminal Aerodrome Forecast
Issued by NWS

Home | Current Version | Previous Version | Text Only | Print | Product List | Glossary On
Versions: 1 2 3 4 5 6 7 8 9 10 11 12 13
000
FTUS42 TJSJ 042340
TAFKPK
TAF
TKPK 042340Z 0500/0524 VRB05KT P6SM VCSH SCT018
     FM051230 10010KT P6SM VCSH SCT022
     FM052130 07006KT P6SM SCT022
      AMD NOT SKED 0502/0511=

USA.gov is the U.S. government's official web portal to all federal, state and local government web resources and services.